Gniezno, Poland
Current Conditions -  °F | °C
As of 6:30 AM on Monday 20 Oct 2014 (Local Time) from EPPO Reporting Station
Broken Clouds Broken Clouds  
Wind Chill: 59°   Ceiling: 900
Heat Index: 59°   Visibility: 6mi
Dew Point: 55°   Wind: 14mph
Humidity: 88%   Direction: 260°W
Pressure: 29.83"   Gusts: NA
Location:  52.53°N, 17.61°E
Report Text: EPPO 200430Z 26012KT 9999 BKN009 15/13 Q1010
Loading
Personal Weather Stations






























Interactive Weather Map
Tropical Storm Tracking
New forecast layout! Learn more

10-Day Weather Forecast

Advertisements
Track Severe Weather on mobile